createdAt,value
2023-07-07T00:00:56.120Z,2.53
2023-07-07T00:03:24.100Z,2.50
2023-07-07T00:05:51.462Z,3.13
2023-07-07T00:08:18.900Z,2.47
2023-07-07T00:10:46.328Z,2.53
2023-07-07T00:13:16.024Z,2.30
2023-07-07T00:15:45.310Z,2.53
2023-07-07T00:18:15.546Z,2.97
2023-07-07T00:20:43.689Z,2.67
2023-07-07T00:23:13.352Z,2.40
2023-07-07T00:25:41.218Z,2.27
2023-07-07T00:28:08.902Z,2.47
2023-07-07T00:30:36.736Z,2.60
2023-07-07T00:33:04.185Z,2.53
2023-07-07T00:35:31.651Z,2.63
2023-07-07T00:37:59.023Z,2.60
2023-07-07T00:40:26.375Z,2.80
2023-07-07T00:42:53.765Z,2.53
2023-07-07T00:45:22.084Z,2.53
2023-07-07T00:48:01.157Z,4.17
2023-07-07T00:50:38.070Z,3.20
2023-07-07T00:53:07.084Z,3.07
2023-07-07T00:55:39.325Z,3.10
2023-07-07T00:58:11.169Z,3.23
2023-07-07T01:00:41.383Z,2.47
2023-07-07T01:03:21.001Z,2.97
2023-07-07T01:05:50.676Z,3.00
2023-07-07T01:08:18.513Z,2.63
2023-07-07T01:10:46.534Z,2.73
2023-07-07T01:13:15.194Z,2.30
2023-07-07T01:16:16.031Z,2.50
2023-07-07T01:18:55.979Z,2.30
2023-07-07T01:21:44.197Z,2.27
2023-07-07T01:24:25.711Z,2.30
2023-07-07T01:27:28.513Z,2.03
2023-07-07T01:30:05.328Z,2.47
2023-07-07T01:32:36.992Z,2.40
2023-07-07T01:35:11.198Z,2.60
2023-07-07T01:37:38.569Z,2.93
2023-07-07T01:40:07.171Z,2.40
2023-07-07T01:42:46.820Z,2.23
2023-07-07T01:45:30.128Z,2.07
2023-07-07T01:48:11.668Z,2.63
2023-07-07T01:50:41.129Z,2.83
2023-07-07T01:53:14.633Z,2.40
2023-07-07T01:55:48.882Z,2.47
2023-07-07T01:58:18.350Z,2.30
2023-07-07T02:00:49.823Z,2.07
2023-07-07T02:03:19.985Z,2.27
2023-07-07T02:05:48.408Z,2.33
2023-07-07T02:08:16.288Z,2.43
2023-07-07T02:10:43.766Z,2.20
2023-07-07T02:13:11.628Z,2.10
2023-07-07T02:15:39.859Z,2.50
2023-07-07T02:18:07.496Z,2.60
2023-07-07T02:20:34.874Z,2.60
2023-07-07T02:23:02.368Z,2.20
2023-07-07T02:25:31.221Z,2.60
2023-07-07T02:27:58.623Z,2.60
2023-07-07T02:30:26.734Z,2.13
2023-07-07T02:32:59.867Z,2.63
2023-07-07T02:35:27.217Z,2.30
2023-07-07T02:37:56.559Z,2.47
2023-07-07T02:40:24.396Z,2.13
2023-07-07T02:42:51.816Z,2.30
2023-07-07T02:45:19.804Z,2.30
2023-07-07T02:47:47.506Z,2.00
2023-07-07T02:50:15.236Z,2.27
2023-07-07T02:52:42.704Z,2.53
2023-07-07T02:55:11.145Z,2.70
2023-07-07T02:57:38.719Z,2.73
2023-07-07T03:00:10.221Z,2.47
2023-07-07T03:02:38.081Z,2.20
2023-07-07T03:05:06.273Z,2.33
2023-07-07T03:07:33.713Z,2.13
2023-07-07T03:10:01.430Z,2.70
2023-07-07T03:12:30.406Z,2.13
2023-07-07T03:14:58.002Z,2.53
2023-07-07T03:17:27.134Z,2.53
2023-07-07T03:19:54.573Z,2.50
2023-07-07T03:22:23.912Z,2.43
2023-07-07T03:24:58.313Z,2.50
2023-07-07T03:27:39.144Z,2.63
2023-07-07T03:30:11.620Z,2.40
2023-07-07T03:32:54.082Z,2.63
2023-07-07T03:35:21.741Z,2.93
2023-07-07T03:37:49.327Z,2.40
2023-07-07T03:40:17.118Z,2.93
2023-07-07T03:42:44.680Z,2.40
2023-07-07T03:45:13.926Z,2.67
2023-07-07T03:47:42.092Z,2.57
2023-07-07T03:50:10.944Z,2.53
2023-07-07T03:52:38.469Z,2.53
2023-07-07T03:55:06.378Z,2.87
2023-07-07T03:57:33.737Z,2.67
2023-07-07T04:00:04.344Z,2.67
2023-07-07T04:02:44.501Z,2.30
2023-07-07T04:05:12.668Z,2.40
2023-07-07T04:07:40.158Z,2.60
2023-07-07T04:10:09.282Z,2.63
2023-07-07T04:12:36.848Z,2.43
2023-07-07T04:15:05.114Z,2.33
2023-07-07T04:17:34.482Z,2.53
2023-07-07T04:20:03.440Z,2.77
2023-07-07T04:22:31.767Z,2.83
2023-07-07T04:25:16.712Z,2.50
2023-07-07T04:27:45.344Z,2.53
2023-07-07T04:30:13.465Z,2.37
2023-07-07T04:32:41.406Z,2.53
2023-07-07T04:35:09.690Z,2.50
2023-07-07T04:37:38.916Z,2.30
2023-07-07T04:40:07.349Z,2.50
2023-07-07T04:42:36.248Z,2.80
2023-07-07T04:45:04.008Z,2.57
2023-07-07T04:47:31.776Z,2.50
2023-07-07T04:49:59.221Z,2.20
2023-07-07T04:52:26.628Z,2.50
2023-07-07T04:54:54.122Z,2.63
2023-07-07T04:57:22.082Z,2.60
2023-07-07T04:59:50.716Z,2.33
2023-07-07T05:02:18.744Z,2.20
2023-07-07T05:04:46.571Z,2.20
2023-07-07T05:07:14.053Z,2.60
2023-07-07T05:09:41.955Z,2.70
2023-07-07T05:12:11.353Z,2.67
2023-07-07T05:14:38.726Z,2.27
2023-07-07T05:17:06.233Z,2.50
2023-07-07T05:19:33.689Z,2.33
2023-07-07T05:22:01.202Z,2.40
2023-07-07T05:24:28.738Z,2.60
2023-07-07T05:26:56.607Z,2.57
2023-07-07T05:29:24.096Z,2.23
2023-07-07T05:31:51.497Z,2.60
2023-07-07T05:34:20.365Z,2.47
2023-07-07T05:36:47.776Z,2.80
2023-07-07T05:39:15.117Z,2.50
2023-07-07T05:41:42.770Z,2.30
2023-07-07T05:44:10.616Z,2.70
2023-07-07T05:46:38.038Z,2.60
2023-07-07T05:49:05.513Z,2.70
2023-07-07T05:51:33.049Z,2.33
2023-07-07T05:54:00.937Z,2.93
2023-07-07T05:56:28.912Z,2.43
2023-07-07T05:58:56.641Z,2.47
2023-07-07T06:01:24.701Z,3.03
2023-07-07T06:03:52.320Z,3.17
2023-07-07T06:06:22.872Z,3.00
2023-07-07T06:08:52.046Z,2.70
2023-07-07T06:11:19.381Z,2.57
2023-07-07T06:13:47.419Z,2.70
2023-07-07T06:16:15.612Z,2.30
2023-07-07T06:18:44.122Z,2.67
2023-07-07T06:21:11.781Z,2.63
2023-07-07T06:23:39.098Z,2.57
2023-07-07T06:26:06.554Z,2.60
2023-07-07T06:28:34.033Z,2.83
2023-07-07T06:31:01.933Z,2.97
2023-07-07T06:33:29.603Z,2.90
2023-07-07T06:35:57.046Z,2.43
2023-07-07T06:38:24.402Z,2.73
2023-07-07T06:40:51.933Z,2.80
2023-07-07T06:43:20.439Z,2.63
2023-07-07T06:45:56.940Z,2.67
2023-07-07T06:48:24.335Z,2.53
2023-07-07T06:50:52.252Z,2.67
2023-07-07T06:53:19.645Z,2.60
2023-07-07T06:55:47.063Z,2.93
2023-07-07T06:58:15.362Z,2.67
2023-07-07T07:00:44.706Z,2.90
2023-07-07T07:03:12.481Z,2.43
2023-07-07T07:05:41.240Z,2.30
2023-07-07T07:08:08.659Z,2.60
2023-07-07T07:10:36.112Z,2.60
2023-07-07T07:13:03.695Z,2.50
2023-07-07T07:15:31.340Z,2.70
2023-07-07T07:17:58.929Z,2.50
2023-07-07T07:20:26.700Z,2.30
2023-07-07T07:22:54.114Z,1.90
2023-07-07T07:25:21.528Z,2.40
2023-07-07T07:27:48.898Z,2.50
2023-07-07T07:30:16.854Z,2.67
2023-07-07T07:32:44.564Z,2.30
2023-07-07T07:35:12.775Z,2.37
2023-07-07T07:37:40.383Z,2.50
2023-07-07T07:40:08.440Z,2.67
2023-07-07T07:42:35.830Z,1.97
2023-07-07T07:45:03.267Z,2.30
2023-07-07T07:47:31.837Z,2.30
2023-07-07T07:49:59.498Z,2.80
2023-07-07T07:52:26.837Z,2.27
2023-07-07T07:54:54.552Z,1.93
2023-07-07T07:57:22.433Z,2.30
2023-07-07T07:59:51.112Z,2.60
2023-07-07T08:02:18.948Z,2.40
2023-07-07T08:04:47.509Z,2.58
2023-07-07T08:07:15.322Z,2.50
2023-07-07T08:09:42.744Z,2.83
2023-07-07T08:12:10.970Z,2.42
2023-07-07T08:14:38.396Z,2.53
2023-07-07T08:17:09.917Z,2.70
2023-07-07T08:19:39.808Z,2.70
2023-07-07T08:22:14.277Z,2.63
2023-07-07T08:24:44.748Z,2.42
2023-07-07T08:29:43.945Z,2.80
2023-07-07T08:32:15.899Z,3.15
2023-07-07T08:37:13.724Z,2.85
2023-07-07T08:39:41.038Z,2.80
2023-07-07T08:42:30.080Z,3.17
2023-07-07T08:44:59.644Z,2.92
2023-07-07T08:47:43.570Z,2.90
2023-07-07T08:50:31.438Z,2.65
2023-07-07T08:53:16.820Z,3.00
2023-07-07T08:56:07.141Z,2.50
2023-07-07T08:58:54.812Z,2.47
2023-07-07T09:01:42.824Z,2.83
2023-07-07T09:04:42.972Z,3.08
2023-07-07T09:07:22.478Z,2.80
2023-07-07T09:10:22.647Z,2.70
2023-07-07T09:13:01.286Z,2.70
2023-07-07T09:15:32.880Z,2.67
2023-07-07T09:18:06.741Z,3.00
2023-07-07T09:20:37.232Z,3.05
2023-07-07T09:23:15.507Z,4.47
2023-07-07T09:25:56.696Z,3.20
2023-07-07T09:28:29.892Z,2.95
2023-07-07T09:30:59.817Z,2.83
2023-07-07T09:33:27.732Z,2.75
2023-07-07T09:36:17.499Z,2.92
2023-07-07T09:38:57.053Z,6.85
2023-07-07T09:41:42.640Z,3.22
2023-07-07T09:44:16.526Z,2.97
2023-07-07T09:47:29.430Z,3.03
2023-07-07T09:50:09.308Z,2.78
2023-07-07T09:52:45.954Z,3.08
2023-07-07T09:55:21.626Z,3.15
2023-07-07T09:58:07.527Z,2.65
2023-07-07T10:00:45.496Z,3.28
2023-07-07T10:03:29.871Z,3.28
2023-07-07T10:06:00.528Z,3.30
2023-07-07T10:08:28.296Z,3.10
2023-07-07T10:13:52.605Z,3.08
2023-07-07T10:16:32.287Z,2.80
2023-07-07T10:19:13.840Z,3.03
2023-07-07T10:21:41.401Z,3.80
2023-07-07T10:24:12.848Z,3.40
2023-07-07T10:26:46.893Z,3.38
2023-07-07T10:29:19.839Z,3.05
2023-07-07T10:31:50.128Z,3.30
2023-07-07T10:34:23.151Z,3.25
2023-07-07T10:36:54.270Z,3.22
2023-07-07T10:39:24.344Z,3.65
2023-07-07T10:41:51.873Z,3.35
2023-07-07T10:44:19.567Z,3.60
2023-07-07T10:46:47.468Z,3.40
2023-07-07T10:49:19.549Z,3.20
2023-07-07T10:52:13.788Z,3.67
2023-07-07T10:55:10.410Z,3.33
2023-07-07T10:58:20.390Z,4.43
2023-07-07T11:01:15.356Z,3.63
2023-07-07T11:04:28.225Z,3.30
2023-07-07T11:07:23.600Z,3.63
2023-07-07T11:10:30.332Z,3.58
2023-07-07T11:13:28.210Z,4.22
2023-07-07T11:16:21.781Z,4.30
2023-07-07T11:19:11.148Z,4.03
2023-07-07T11:21:58.160Z,3.70
2023-07-07T11:24:56.421Z,3.80
2023-07-07T11:27:51.938Z,4.25
2023-07-07T11:30:27.455Z,4.07
2023-07-07T11:33:24.029Z,4.10
2023-07-07T11:35:54.990Z,4.30
2023-07-07T11:38:51.664Z,4.55
2023-07-07T11:41:38.478Z,3.97
2023-07-07T11:44:21.016Z,4.55
2023-07-07T11:47:00.761Z,4.53
2023-07-07T11:50:04.889Z,4.90
2023-07-07T11:53:02.690Z,4.45
2023-07-07T11:55:55.561Z,5.00
2023-07-07T11:58:46.654Z,4.50
2023-07-07T12:01:25.714Z,5.10
2023-07-07T12:04:07.584Z,4.95
2023-07-07T12:06:53.622Z,5.43
2023-07-07T12:09:24.005Z,6.25
2023-07-07T12:11:58.614Z,6.88
2023-07-07T12:14:40.552Z,7.07
2023-07-07T12:17:22.680Z,6.75
2023-07-07T12:19:53.803Z,6.63
2023-07-07T12:22:27.119Z,6.55
2023-07-07T12:25:14.174Z,6.32
2023-07-07T12:27:48.132Z,6.72
2023-07-07T12:30:28.748Z,6.60
2023-07-07T12:32:56.772Z,7.50
2023-07-07T12:35:37.360Z,6.65
2023-07-07T12:38:34.782Z,8.05
2023-07-07T12:41:10.468Z,9.48
2023-07-07T12:43:44.559Z,7.80
2023-07-07T12:46:31.461Z,8.95
2023-07-07T12:49:04.449Z,7.68
2023-07-07T12:51:36.619Z,8.55
2023-07-07T12:54:04.304Z,8.02
2023-07-07T12:56:32.852Z,8.38
2023-07-07T12:59:02.654Z,7.45
2023-07-07T13:01:36.947Z,7.28
2023-07-07T13:04:11.503Z,7.05
2023-07-07T13:07:02.214Z,6.97
2023-07-07T13:09:45.041Z,6.43
2023-07-07T13:12:35.165Z,7.22
2023-07-07T13:15:27.001Z,7.03
2023-07-07T13:17:56.403Z,6.97
2023-07-07T13:20:26.286Z,6.43
2023-07-07T13:23:18.451Z,6.28
2023-07-07T13:25:48.128Z,6.10
2023-07-07T13:28:17.143Z,6.05
2023-07-07T13:30:47.817Z,6.85
2023-07-07T13:33:20.389Z,7.07
2023-07-07T13:35:50.928Z,6.15
2023-07-07T13:38:21.117Z,5.97
2023-07-07T13:40:49.814Z,5.75
2023-07-07T13:43:24.863Z,6.88
2023-07-07T13:46:00.233Z,6.65
2023-07-07T13:48:30.366Z,6.50
2023-07-07T13:50:58.020Z,6.47
2023-07-07T13:53:27.838Z,6.68
2023-07-07T13:55:58.222Z,6.28
2023-07-07T13:58:25.934Z,6.68
2023-07-07T14:01:00.044Z,6.32
2023-07-07T14:03:29.631Z,6.50
2023-07-07T14:06:13.733Z,7.70
2023-07-07T14:08:41.139Z,7.35
2023-07-07T14:11:26.826Z,7.03
2023-07-07T14:13:59.864Z,7.30
2023-07-07T14:16:41.259Z,7.57
2023-07-07T14:19:28.922Z,7.65
2023-07-07T14:21:57.641Z,6.60
2023-07-07T14:24:31.045Z,6.63
2023-07-07T14:26:59.985Z,6.65
2023-07-07T14:29:38.912Z,6.55
2023-07-07T14:32:18.521Z,7.07
2023-07-07T14:34:51.706Z,7.78
2023-07-07T14:37:44.801Z,6.93
2023-07-07T14:40:34.189Z,7.38
2023-07-07T14:43:18.040Z,7.43
2023-07-07T14:45:46.368Z,8.90
2023-07-07T14:48:19.786Z,7.93
2023-07-07T14:50:48.689Z,7.97
2023-07-07T14:53:20.799Z,7.57
2023-07-07T14:55:53.347Z,7.85
2023-07-07T14:58:25.599Z,7.70
2023-07-07T15:01:05.438Z,8.10
2023-07-07T15:03:38.941Z,7.55
2023-07-07T15:06:06.683Z,8.05
2023-07-07T15:08:36.905Z,7.75
2023-07-07T15:11:07.460Z,8.02
2023-07-07T15:13:35.631Z,8.15
2023-07-07T15:16:06.383Z,7.57
2023-07-07T15:18:34.556Z,8.38
2023-07-07T15:21:01.988Z,7.30
2023-07-07T15:23:29.756Z,8.63
2023-07-07T15:25:58.162Z,8.25
2023-07-07T15:28:26.220Z,7.45
2023-07-07T15:30:54.384Z,6.82
2023-07-07T15:33:23.246Z,7.22
2023-07-07T15:36:04.865Z,8.32
2023-07-07T15:38:40.548Z,7.15
2023-07-07T15:41:13.844Z,7.90
2023-07-07T15:43:42.773Z,8.10
2023-07-07T15:46:17.557Z,8.93
2023-07-07T15:48:49.083Z,8.80
2023-07-07T15:51:31.290Z,8.52
2023-07-07T15:54:00.550Z,8.88
2023-07-07T15:56:33.031Z,8.95
2023-07-07T15:59:02.090Z,8.75
2023-07-07T16:01:30.225Z,9.45
2023-07-07T16:03:57.803Z,9.10
2023-07-07T16:06:25.725Z,8.07
2023-07-07T16:08:53.586Z,9.13
2023-07-07T16:11:22.826Z,9.10
2023-07-07T16:13:53.126Z,7.78
2023-07-07T16:16:23.541Z,8.95
2023-07-07T16:18:51.929Z,9.15
2023-07-07T16:21:27.947Z,8.45
2023-07-07T16:23:55.800Z,9.02
2023-07-07T16:26:29.405Z,8.73
2023-07-07T16:28:58.114Z,8.70
2023-07-07T16:31:27.697Z,8.45
2023-07-07T16:33:55.749Z,8.63
2023-07-07T16:36:25.707Z,8.32
2023-07-07T16:38:53.650Z,8.85
2023-07-07T16:41:24.842Z,9.18
2023-07-07T16:43:55.799Z,9.50
2023-07-07T16:46:24.068Z,9.10
2023-07-07T16:48:54.350Z,8.65
2023-07-07T16:51:24.574Z,8.50
2023-07-07T16:53:52.458Z,7.57
2023-07-07T16:56:35.132Z,8.68
2023-07-07T16:59:02.838Z,8.48
2023-07-07T17:01:32.150Z,8.23
2023-07-07T17:04:00.231Z,8.57
2023-07-07T17:06:29.648Z,8.98
2023-07-07T17:08:58.903Z,8.68
2023-07-07T17:11:28.901Z,9.23
2023-07-07T17:13:57.197Z,8.85
2023-07-07T17:16:27.233Z,9.45
2023-07-07T17:19:14.310Z,8.73
2023-07-07T17:21:41.599Z,9.40
2023-07-07T17:24:09.050Z,8.70
2023-07-07T17:26:37.183Z,9.52
2023-07-07T17:29:12.346Z,8.93
2023-07-07T17:31:39.720Z,9.07
2023-07-07T17:34:09.240Z,9.13
2023-07-07T17:36:38.202Z,8.77
2023-07-07T17:39:12.820Z,9.00
2023-07-07T17:41:40.370Z,9.18
2023-07-07T17:44:07.683Z,8.35
2023-07-07T17:46:37.666Z,9.35
2023-07-07T17:49:18.171Z,9.05
2023-07-07T17:51:46.417Z,8.88
2023-07-07T17:54:15.028Z,9.45
2023-07-07T17:56:43.273Z,8.52
2023-07-07T17:59:21.321Z,8.75
2023-07-07T18:01:50.699Z,9.38
2023-07-07T18:04:18.116Z,8.75
2023-07-07T18:06:55.116Z,9.32
2023-07-07T18:09:22.442Z,9.20
2023-07-07T18:11:52.037Z,8.07
2023-07-07T18:14:19.588Z,8.90
2023-07-07T18:16:56.856Z,8.52
2023-07-07T18:20:35.367Z,8.65
2023-07-07T18:22:22.960Z,9.15
2023-07-07T18:24:50.395Z,9.57
2023-07-07T18:27:17.720Z,9.38
2023-07-07T18:29:45.069Z,9.20
2023-07-07T18:32:12.613Z,9.82
2023-07-07T18:34:40.803Z,9.35
2023-07-07T18:37:11.775Z,10.05
2023-07-07T18:39:40.241Z,10.32
2023-07-07T18:42:10.586Z,9.60
2023-07-07T18:44:38.222Z,10.18
2023-07-07T18:47:14.778Z,11.93
2023-07-07T18:49:42.509Z,11.05
2023-07-07T18:52:09.956Z,10.52
2023-07-07T18:54:37.241Z,10.40
2023-07-07T18:57:04.927Z,10.88
2023-07-07T18:59:32.231Z,12.45
2023-07-07T19:01:59.644Z,12.68
2023-07-07T19:04:27.176Z,12.63
2023-07-07T19:06:54.576Z,13.40
2023-07-07T19:09:25.328Z,12.18
2023-07-07T19:11:55.811Z,12.02
2023-07-07T19:14:23.519Z,12.35
2023-07-07T19:16:51.532Z,10.02
2023-07-07T19:19:24.972Z,11.07
2023-07-07T19:21:52.777Z,10.38
2023-07-07T19:24:20.182Z,11.02
2023-07-07T19:26:55.677Z,9.75
2023-07-07T19:29:23.258Z,10.00
2023-07-07T19:31:50.709Z,8.90
2023-07-07T19:34:18.143Z,9.05
2023-07-07T19:36:47.129Z,9.77
2023-07-07T19:39:18.510Z,9.02
2023-07-07T19:41:47.428Z,9.77
2023-07-07T19:44:15.198Z,9.77
2023-07-07T19:46:44.433Z,9.63
2023-07-07T19:49:18.506Z,9.93
2023-07-07T19:51:46.771Z,9.73
2023-07-07T19:54:14.800Z,10.10
2023-07-07T19:56:42.301Z,10.15
2023-07-07T19:59:14.334Z,10.68
2023-07-07T20:01:41.873Z,10.55
2023-07-07T20:04:09.376Z,10.93
2023-07-07T20:06:41.504Z,10.80
2023-07-07T20:09:15.988Z,9.48
2023-07-07T20:11:43.645Z,9.48
2023-07-07T20:14:11.070Z,9.53
2023-07-07T20:16:44.201Z,9.68
2023-07-07T20:19:15.124Z,9.90
2023-07-07T20:21:43.391Z,9.45
2023-07-07T20:24:19.287Z,9.27
2023-07-07T20:26:48.246Z,9.37
2023-07-07T20:29:17.258Z,9.30
2023-07-07T20:31:46.882Z,8.83
2023-07-07T20:34:14.961Z,9.80
2023-07-07T20:36:43.551Z,10.30
2023-07-07T20:39:14.006Z,9.07
2023-07-07T20:41:41.783Z,9.33
2023-07-07T20:44:09.135Z,10.33
2023-07-07T20:46:39.018Z,9.70
2023-07-07T20:49:18.105Z,10.63
2023-07-07T20:51:46.077Z,9.67
2023-07-07T20:54:14.531Z,9.57
2023-07-07T20:56:42.270Z,9.40
2023-07-07T20:59:26.555Z,10.10
2023-07-07T21:01:56.298Z,9.87
2023-07-07T21:04:24.880Z,10.07
2023-07-07T21:06:52.711Z,9.60
2023-07-07T21:09:20.108Z,9.98
2023-07-07T21:11:47.474Z,9.87
2023-07-07T21:14:14.811Z,9.37
2023-07-07T21:16:48.525Z,10.27
2023-07-07T21:19:16.152Z,10.20
2023-07-07T21:21:43.786Z,9.43
2023-07-07T21:24:11.103Z,10.70
2023-07-07T21:26:38.530Z,10.17
2023-07-07T21:29:13.163Z,9.20
2023-07-07T21:31:41.378Z,9.47
2023-07-07T21:34:09.679Z,9.27
2023-07-07T21:36:40.132Z,9.47
2023-07-07T21:39:28.167Z,9.87
2023-07-07T21:42:10.940Z,9.83
2023-07-07T21:44:41.094Z,9.97
2023-07-07T21:47:13.317Z,9.83
2023-07-07T21:49:40.841Z,8.93
2023-07-07T21:52:17.215Z,9.67
2023-07-07T21:54:44.919Z,10.60
2023-07-07T21:57:43.293Z,10.13
2023-07-07T22:00:17.065Z,9.30
2023-07-07T22:02:46.426Z,9.90
2023-07-07T22:05:15.065Z,9.53
2023-07-07T22:07:43.346Z,9.47
2023-07-07T22:10:39.327Z,8.90
2023-07-07T22:13:07.032Z,9.20
2023-07-07T22:15:34.687Z,9.10
2023-07-07T22:18:03.175Z,9.30
2023-07-07T22:20:36.863Z,9.73
2023-07-07T22:23:06.240Z,9.17
2023-07-07T22:25:35.303Z,9.43
2023-07-07T22:28:06.515Z,9.27
2023-07-07T22:30:41.531Z,8.70
2023-07-07T22:33:10.654Z,9.70
2023-07-07T22:35:38.396Z,9.60
2023-07-07T22:38:15.486Z,8.83
2023-07-07T22:40:45.190Z,8.10
2023-07-07T22:43:14.727Z,8.83
2023-07-07T22:45:43.816Z,8.73
2023-07-07T22:48:16.394Z,9.03
2023-07-07T22:50:45.484Z,9.20
2023-07-07T22:53:13.772Z,9.40
2023-07-07T22:55:44.721Z,9.40
2023-07-07T22:58:22.374Z,8.77
2023-07-07T23:00:50.505Z,9.00
2023-07-07T23:03:18.067Z,8.57
2023-07-07T23:05:47.113Z,8.53
2023-07-07T23:08:26.298Z,7.97
2023-07-07T23:10:53.925Z,7.77
2023-07-07T23:13:21.394Z,8.30
2023-07-07T23:15:49.420Z,7.00
2023-07-07T23:18:16.985Z,7.27
2023-07-07T23:20:44.901Z,7.97
2023-07-07T23:23:22.499Z,8.00
2023-07-07T23:25:58.522Z,7.83
2023-07-07T23:28:28.715Z,7.50
2023-07-07T23:31:07.924Z,8.00
2023-07-07T23:33:36.767Z,7.47
2023-07-07T23:36:32.854Z,8.43
2023-07-07T23:39:02.358Z,7.93
2023-07-07T23:41:29.961Z,7.90
2023-07-07T23:43:57.952Z,7.70
2023-07-07T23:46:26.573Z,8.27
2023-07-07T23:48:53.998Z,8.10
2023-07-07T23:51:21.368Z,7.77
2023-07-07T23:53:48.717Z,7.67
2023-07-07T23:56:20.660Z,8.50
2023-07-07T23:58:48.429Z,8.57
